sensor_id;sensor_type;location;lat;lon;timestamp;pressure;altitude;pressure_sealevel;temperature;humidity
74181;BME280;62544;50.826;14.354;2022-07-30T00:01:52;98968.39;;;15.67;78.78
74181;BME280;62544;50.826;14.354;2022-07-30T00:05:54;98969.03;;;15.68;78.82
74181;BME280;62544;50.826;14.354;2022-07-30T00:09:56;98969.53;;;15.68;78.63
74181;BME280;62544;50.826;14.354;2022-07-30T00:13:58;98970.37;;;15.68;79.39
74181;BME280;62544;50.826;14.354;2022-07-30T00:18:00;98969.23;;;15.68;79.43
74181;BME280;62544;50.826;14.354;2022-07-30T00:22:02;98968.42;;;15.67;79.08
74181;BME280;62544;50.826;14.354;2022-07-30T00:26:04;98966.21;;;15.66;79.79
74181;BME280;62544;50.826;14.354;2022-07-30T00:30:06;98965.06;;;15.65;79.61
74181;BME280;62544;50.826;14.354;2022-07-30T00:34:08;98965.23;;;15.65;79.84
74181;BME280;62544;50.826;14.354;2022-07-30T00:38:10;98965.67;;;15.66;79.45
74181;BME280;62544;50.826;14.354;2022-07-30T00:42:12;98966.55;;;15.67;79.29
74181;BME280;62544;50.826;14.354;2022-07-30T00:46:14;98966.28;;;15.68;79.65
74181;BME280;62544;50.826;14.354;2022-07-30T00:50:16;98965.65;;;15.69;79.38
74181;BME280;62544;50.826;14.354;2022-07-30T00:54:18;98966.05;;;15.69;79.52
74181;BME280;62544;50.826;14.354;2022-07-30T00:58:20;98967.46;;;15.70;79.61
74181;BME280;62544;50.826;14.354;2022-07-30T01:02:22;98968.70;;;15.70;79.80
74181;BME280;62544;50.826;14.354;2022-07-30T01:06:24;98970.87;;;15.70;79.44
74181;BME280;62544;50.826;14.354;2022-07-30T01:10:26;98968.91;;;15.69;80.18
74181;BME280;62544;50.826;14.354;2022-07-30T01:14:28;98966.72;;;15.67;80.25
74181;BME280;62544;50.826;14.354;2022-07-30T01:18:30;98965.11;;;15.68;80.01
74181;BME280;62544;50.826;14.354;2022-07-30T01:22:34;98963.78;;;15.69;79.62
74181;BME280;62544;50.826;14.354;2022-07-30T01:26:34;98961.97;;;15.71;79.39
74181;BME280;62544;50.826;14.354;2022-07-30T01:30:37;98957.75;;;15.73;80.02
74181;BME280;62544;50.826;14.354;2022-07-30T01:34:38;98953.44;;;15.74;79.72
74181;BME280;62544;50.826;14.354;2022-07-30T01:38:40;98948.99;;;15.76;79.44
74181;BME280;62544;50.826;14.354;2022-07-30T01:42:42;98946.17;;;15.79;79.41
74181;BME280;62544;50.826;14.354;2022-07-30T01:46:44;98943.87;;;15.81;79.30
74181;BME280;62544;50.826;14.354;2022-07-30T01:50:46;98943.44;;;15.83;79.48
74181;BME280;62544;50.826;14.354;2022-07-30T01:54:49;98942.07;;;15.86;79.35
74181;BME280;62544;50.826;14.354;2022-07-30T01:58:50;98941.53;;;15.88;79.66
74181;BME280;62544;50.826;14.354;2022-07-30T02:02:52;98943.48;;;15.89;80.16
74181;BME280;62544;50.826;14.354;2022-07-30T02:07:01;98945.86;;;15.88;80.52
74181;BME280;62544;50.826;14.354;2022-07-30T02:11:01;98947.60;;;15.87;81.05
74181;BME280;62544;50.826;14.354;2022-07-30T02:19:10;98948.71;;;15.84;82.17
74181;BME280;62544;50.826;14.354;2022-07-30T02:23:04;98949.33;;;15.81;82.71
74181;BME280;62544;50.826;14.354;2022-07-30T02:27:14;98950.16;;;15.77;83.95
74181;BME280;62544;50.826;14.354;2022-07-30T02:31:06;98951.48;;;15.73;84.03
74181;BME280;62544;50.826;14.354;2022-07-30T02:35:10;98952.88;;;15.67;84.61
74181;BME280;62544;50.826;14.354;2022-07-30T02:39:10;98953.97;;;15.61;85.82
74181;BME280;62544;50.826;14.354;2022-07-30T02:43:14;98953.59;;;15.57;86.35
74181;BME280;62544;50.826;14.354;2022-07-30T02:47:14;98953.03;;;15.53;86.50
74181;BME280;62544;50.826;14.354;2022-07-30T02:51:16;98954.00;;;15.50;86.60
74181;BME280;62544;50.826;14.354;2022-07-30T02:55:18;98954.72;;;15.47;86.83
74181;BME280;62544;50.826;14.354;2022-07-30T02:59:20;98955.32;;;15.45;87.07
74181;BME280;62544;50.826;14.354;2022-07-30T03:03:22;98955.22;;;15.44;87.31
74181;BME280;62544;50.826;14.354;2022-07-30T03:07:24;98953.30;;;15.44;88.13
74181;BME280;62544;50.826;14.354;2022-07-30T03:11:26;98952.17;;;15.43;88.46
74181;BME280;62544;50.826;14.354;2022-07-30T03:15:28;98951.11;;;15.41;89.71
74181;BME280;62544;50.826;14.354;2022-07-30T03:19:31;98948.71;;;15.38;89.36
74181;BME280;62544;50.826;14.354;2022-07-30T03:23:32;98947.80;;;15.38;89.35
74181;BME280;62544;50.826;14.354;2022-07-30T03:27:35;98947.93;;;15.39;89.56
74181;BME280;62544;50.826;14.354;2022-07-30T03:31:37;98948.21;;;15.40;89.99
74181;BME280;62544;50.826;14.354;2022-07-30T03:35:38;98950.82;;;15.41;90.28
74181;BME280;62544;50.826;14.354;2022-07-30T03:39:40;98953.38;;;15.45;90.62
74181;BME280;62544;50.826;14.354;2022-07-30T03:43:42;98954.53;;;15.49;90.48
74181;BME280;62544;50.826;14.354;2022-07-30T03:47:44;98955.86;;;15.55;90.40
74181;BME280;62544;50.826;14.354;2022-07-30T03:51:46;98957.98;;;15.61;90.61
74181;BME280;62544;50.826;14.354;2022-07-30T03:55:48;98959.92;;;15.67;90.56
74181;BME280;62544;50.826;14.354;2022-07-30T03:59:50;98960.88;;;15.74;90.47
74181;BME280;62544;50.826;14.354;2022-07-30T04:03:52;98961.33;;;15.82;90.83
74181;BME280;62544;50.826;14.354;2022-07-30T04:07:54;98961.24;;;15.87;90.92
74181;BME280;62544;50.826;14.354;2022-07-30T04:11:56;98960.38;;;15.91;90.86
74181;BME280;62544;50.826;14.354;2022-07-30T04:20:07;98959.45;;;15.99;90.38
74181;BME280;62544;50.826;14.354;2022-07-30T04:24:02;98960.24;;;16.04;90.94
74181;BME280;62544;50.826;14.354;2022-07-30T04:28:04;98960.97;;;16.10;90.73
74181;BME280;62544;50.826;14.354;2022-07-30T04:32:06;98960.38;;;16.15;90.59
74181;BME280;62544;50.826;14.354;2022-07-30T04:36:08;98960.49;;;16.21;90.55
74181;BME280;62544;50.826;14.354;2022-07-30T04:40:10;98960.42;;;16.27;90.72
74181;BME280;62544;50.826;14.354;2022-07-30T04:44:12;98960.22;;;16.32;90.74
74181;BME280;62544;50.826;14.354;2022-07-30T04:48:14;98958.92;;;16.38;90.56
74181;BME280;62544;50.826;14.354;2022-07-30T04:52:16;98958.42;;;16.43;91.22
74181;BME280;62544;50.826;14.354;2022-07-30T04:56:18;98957.84;;;16.48;91.18
74181;BME280;62544;50.826;14.354;2022-07-30T05:00:20;98956.97;;;16.53;90.69
74181;BME280;62544;50.826;14.354;2022-07-30T05:04:22;98956.13;;;16.59;90.62
74181;BME280;62544;50.826;14.354;2022-07-30T05:08:24;98956.09;;;16.66;90.44
74181;BME280;62544;50.826;14.354;2022-07-30T05:12:32;98954.74;;;16.73;90.11
74181;BME280;62544;50.826;14.354;2022-07-30T05:16:28;98954.12;;;16.80;89.96
74181;BME280;62544;50.826;14.354;2022-07-30T05:20:30;98953.47;;;16.86;90.08
74181;BME280;62544;50.826;14.354;2022-07-30T05:24:32;98952.22;;;16.92;90.40
74181;BME280;62544;50.826;14.354;2022-07-30T05:28:34;98951.12;;;16.99;90.06
74181;BME280;62544;50.826;14.354;2022-07-30T05:32:36;98950.44;;;17.05;89.83
74181;BME280;62544;50.826;14.354;2022-07-30T05:36:38;98950.51;;;17.11;89.77
74181;BME280;62544;50.826;14.354;2022-07-30T05:40:40;98950.27;;;17.17;89.76
74181;BME280;62544;50.826;14.354;2022-07-30T05:44:42;98950.72;;;17.23;89.66
74181;BME280;62544;50.826;14.354;2022-07-30T05:48:44;98950.27;;;17.28;88.99
74181;BME280;62544;50.826;14.354;2022-07-30T05:52:46;98951.83;;;17.33;89.56
74181;BME280;62544;50.826;14.354;2022-07-30T05:56:48;98954.10;;;17.37;89.00
74181;BME280;62544;50.826;14.354;2022-07-30T06:00:50;98956.66;;;17.41;88.72
74181;BME280;62544;50.826;14.354;2022-07-30T06:04:52;98957.98;;;17.46;88.41
74181;BME280;62544;50.826;14.354;2022-07-30T06:08:54;98959.47;;;17.52;88.33
74181;BME280;62544;50.826;14.354;2022-07-30T06:12:56;98961.06;;;17.57;87.78
74181;BME280;62544;50.826;14.354;2022-07-30T06:16:58;98962.89;;;17.62;87.82
74181;BME280;62544;50.826;14.354;2022-07-30T06:21:00;98964.31;;;17.66;87.82
74181;BME280;62544;50.826;14.354;2022-07-30T06:25:02;98966.36;;;17.71;87.85
74181;BME280;62544;50.826;14.354;2022-07-30T06:29:04;98968.90;;;17.76;87.78
74181;BME280;62544;50.826;14.354;2022-07-30T06:33:06;98971.70;;;17.78;88.00
74181;BME280;62544;50.826;14.354;2022-07-30T06:37:08;98974.80;;;17.78;87.81
74181;BME280;62544;50.826;14.354;2022-07-30T06:41:10;98977.79;;;17.79;88.11
74181;BME280;62544;50.826;14.354;2022-07-30T06:45:12;98979.55;;;17.81;87.98
74181;BME280;62544;50.826;14.354;2022-07-30T06:49:14;98980.68;;;17.84;87.63
74181;BME280;62544;50.826;14.354;2022-07-30T06:53:16;98980.63;;;17.89;87.62
74181;BME280;62544;50.826;14.354;2022-07-30T06:57:18;98979.14;;;17.96;87.12
74181;BME280;62544;50.826;14.354;2022-07-30T07:01:20;98978.28;;;18.04;86.64
74181;BME280;62544;50.826;14.354;2022-07-30T07:05:22;98977.84;;;18.14;86.43
74181;BME280;62544;50.826;14.354;2022-07-30T07:09:24;98977.64;;;18.24;86.02
74181;BME280;62544;50.826;14.354;2022-07-30T07:13:26;98979.07;;;18.31;85.17
74181;BME280;62544;50.826;14.354;2022-07-30T07:17:28;98980.35;;;18.36;85.31
74181;BME280;62544;50.826;14.354;2022-07-30T07:21:30;98980.44;;;18.42;85.34
74181;BME280;62544;50.826;14.354;2022-07-30T07:25:32;98980.91;;;18.50;85.27
74181;BME280;62544;50.826;14.354;2022-07-30T07:29:34;98981.48;;;18.58;84.80
74181;BME280;62544;50.826;14.354;2022-07-30T07:33:36;98981.76;;;18.67;84.75
74181;BME280;62544;50.826;14.354;2022-07-30T07:37:38;98981.47;;;18.78;83.67
74181;BME280;62544;50.826;14.354;2022-07-30T07:41:40;98981.79;;;18.87;83.85
74181;BME280;62544;50.826;14.354;2022-07-30T07:45:42;98981.92;;;18.91;82.91
74181;BME280;62544;50.826;14.354;2022-07-30T07:49:44;98983.18;;;18.96;83.19
74181;BME280;62544;50.826;14.354;2022-07-30T07:53:46;98984.16;;;19.03;82.03
74181;BME280;62544;50.826;14.354;2022-07-30T07:57:48;98986.22;;;19.08;82.03
74181;BME280;62544;50.826;14.354;2022-07-30T08:01:50;98987.41;;;19.14;82.39
74181;BME280;62544;50.826;14.354;2022-07-30T08:05:52;98988.14;;;19.16;80.92
74181;BME280;62544;50.826;14.354;2022-07-30T08:09:54;98988.82;;;19.14;81.56
74181;BME280;62544;50.826;14.354;2022-07-30T08:13:56;98989.06;;;19.10;81.79
74181;BME280;62544;50.826;14.354;2022-07-30T08:17:58;98990.48;;;19.04;82.01
74181;BME280;62544;50.826;14.354;2022-07-30T08:22:00;98990.24;;;19.01;81.84
74181;BME280;62544;50.826;14.354;2022-07-30T08:26:02;98990.45;;;19.03;81.13
74181;BME280;62544;50.826;14.354;2022-07-30T08:30:04;98992.11;;;19.08;80.54
74181;BME280;62544;50.826;14.354;2022-07-30T08:34:06;98992.10;;;19.17;79.49
74181;BME280;62544;50.826;14.354;2022-07-30T08:38:08;98991.99;;;19.24;78.35
74181;BME280;62544;50.826;14.354;2022-07-30T08:42:10;98991.30;;;19.31;78.50
74181;BME280;62544;50.826;14.354;2022-07-30T08:46:12;98990.80;;;19.43;78.87
74181;BME280;62544;50.826;14.354;2022-07-30T08:50:14;98991.46;;;19.57;75.92
74181;BME280;62544;50.826;14.354;2022-07-30T08:54:18;98992.91;;;19.70;77.80
74181;BME280;62544;50.826;14.354;2022-07-30T08:58:23;98993.79;;;19.86;75.76
74181;BME280;62544;50.826;14.354;2022-07-30T09:02:20;98992.81;;;20.03;75.30
74181;BME280;62544;50.826;14.354;2022-07-30T09:06:22;98993.16;;;20.17;71.46
74181;BME280;62544;50.826;14.354;2022-07-30T09:10:24;98993.18;;;20.24;72.16
74181;BME280;62544;50.826;14.354;2022-07-30T09:14:26;98994.81;;;20.21;75.19
74181;BME280;62544;50.826;14.354;2022-07-30T09:18:32;98995.58;;;20.19;74.05
74181;BME280;62544;50.826;14.354;2022-07-30T09:22:42;98996.22;;;20.15;73.95
74181;BME280;62544;50.826;14.354;2022-07-30T09:26:32;98998.32;;;20.10;74.45
74181;BME280;62544;50.826;14.354;2022-07-30T09:34:36;99003.62;;;19.97;74.56
74181;BME280;62544;50.826;14.354;2022-07-30T09:42:40;99006.84;;;19.78;76.15
74181;BME280;62544;50.826;14.354;2022-07-30T09:46:45;99007.36;;;19.69;75.09
74181;BME280;62544;50.826;14.354;2022-07-30T09:50:46;99008.26;;;19.62;75.47
74181;BME280;62544;50.826;14.354;2022-07-30T09:54:47;99010.02;;;19.59;75.83
74181;BME280;62544;50.826;14.354;2022-07-30T09:58:48;99009.58;;;19.53;76.87
74181;BME280;62544;50.826;14.354;2022-07-30T10:02:50;99009.97;;;19.49;75.58
74181;BME280;62544;50.826;14.354;2022-07-30T10:06:52;99012.14;;;19.48;75.47
74181;BME280;62544;50.826;14.354;2022-07-30T10:10:54;99014.33;;;19.45;74.98
74181;BME280;62544;50.826;14.354;2022-07-30T10:14:55;99016.60;;;19.41;76.66
74181;BME280;62544;50.826;14.354;2022-07-30T10:18:58;99018.44;;;19.39;75.98
74181;BME280;62544;50.826;14.354;2022-07-30T10:23:00;99019.94;;;19.38;75.28
74181;BME280;62544;50.826;14.354;2022-07-30T10:27:01;99019.89;;;19.36;75.75
74181;BME280;62544;50.826;14.354;2022-07-30T10:31:05;99021.14;;;19.29;75.57
74181;BME280;62544;50.826;14.354;2022-07-30T10:35:06;99021.96;;;19.19;78.01
74181;BME280;62544;50.826;14.354;2022-07-30T10:39:08;99022.86;;;19.12;75.91
74181;BME280;62544;50.826;14.354;2022-07-30T10:43:20;99022.88;;;19.11;75.37
74181;BME280;62544;50.826;14.354;2022-07-30T10:47:12;99024.33;;;19.10;75.14
74181;BME280;62544;50.826;14.354;2022-07-30T10:51:16;99025.19;;;19.09;75.80
74181;BME280;62544;50.826;14.354;2022-07-30T10:55:22;99027.60;;;19.07;75.78
74181;BME280;62544;50.826;14.354;2022-07-30T10:59:18;99028.83;;;19.06;74.85
74181;BME280;62544;50.826;14.354;2022-07-30T11:03:20;99030.91;;;19.02;74.98
74181;BME280;62544;50.826;14.354;2022-07-30T11:07:25;99033.51;;;19.01;75.17
74181;BME280;62544;50.826;14.354;2022-07-30T11:15:50;99037.41;;;19.02;74.52
74181;BME280;62544;50.826;14.354;2022-07-30T11:19:28;99039.26;;;18.99;75.18
74181;BME280;62544;50.826;14.354;2022-07-30T11:23:36;99040.41;;;18.94;75.57
74181;BME280;62544;50.826;14.354;2022-07-30T11:27:44;99040.73;;;18.92;75.38
74181;BME280;62544;50.826;14.354;2022-07-30T11:31:34;99042.57;;;18.90;75.06
74181;BME280;62544;50.826;14.354;2022-07-30T11:35:35;99044.02;;;18.90;74.55
74181;BME280;62544;50.826;14.354;2022-07-30T11:43:39;99046.65;;;18.94;74.57
74181;BME280;62544;50.826;14.354;2022-07-30T11:47:42;99047.25;;;19.02;73.61
74181;BME280;62544;50.826;14.354;2022-07-30T11:51:44;99047.24;;;19.10;72.64
74181;BME280;62544;50.826;14.354;2022-07-30T11:55:52;99047.56;;;19.19;71.55
74181;BME280;62544;50.826;14.354;2022-07-30T11:59:54;99047.69;;;19.23;71.63
74181;BME280;62544;50.826;14.354;2022-07-30T12:03:49;99048.66;;;19.30;71.17
74181;BME280;62544;50.826;14.354;2022-07-30T12:07:57;99050.59;;;19.35;70.80
74181;BME280;62544;50.826;14.354;2022-07-30T12:11:54;99052.49;;;19.41;71.21
74181;BME280;62544;50.826;14.354;2022-07-30T12:15:55;99054.19;;;19.49;70.75
74181;BME280;62544;50.826;14.354;2022-07-30T12:19:57;99055.41;;;19.66;69.24
74181;BME280;62544;50.826;14.354;2022-07-30T12:24:01;99055.33;;;20.00;66.62
74181;BME280;62544;50.826;14.354;2022-07-30T12:28:01;99055.38;;;20.43;64.17
74181;BME280;62544;50.826;14.354;2022-07-30T12:32:04;99056.30;;;20.83;62.95
74181;BME280;62544;50.826;14.354;2022-07-30T12:36:05;99056.53;;;21.22;61.60
74181;BME280;62544;50.826;14.354;2022-07-30T12:40:12;99057.40;;;21.53;63.26
74181;BME280;62544;50.826;14.354;2022-07-30T12:44:09;99056.97;;;21.92;60.91
74181;BME280;62544;50.826;14.354;2022-07-30T12:48:11;99056.60;;;22.25;59.87
74181;BME280;62544;50.826;14.354;2022-07-30T12:52:23;99055.02;;;22.58;58.25
74181;BME280;62544;50.826;14.354;2022-07-30T12:56:16;99054.17;;;22.89;57.56
74181;BME280;62544;50.826;14.354;2022-07-30T13:00:17;99052.56;;;22.96;59.72
74181;BME280;62544;50.826;14.354;2022-07-30T13:04:19;99051.89;;;22.93;60.04
74181;BME280;62544;50.826;14.354;2022-07-30T13:12:23;99057.32;;;22.24;69.07
74181;BME280;62544;50.826;14.354;2022-07-30T13:16:29;99063.09;;;21.58;71.86
74181;BME280;62544;50.826;14.354;2022-07-30T13:20:27;99068.98;;;20.99;74.36
74181;BME280;62544;50.826;14.354;2022-07-30T13:24:29;99073.26;;;20.45;76.10
74181;BME280;62544;50.826;14.354;2022-07-30T13:28:32;99079.53;;;19.99;78.63
74181;BME280;62544;50.826;14.354;2022-07-30T13:32:33;99084.79;;;19.62;79.26
74181;BME280;62544;50.826;14.354;2022-07-30T13:36:35;99090.43;;;19.35;78.27
74181;BME280;62544;50.826;14.354;2022-07-30T13:40:37;99095.64;;;19.15;77.98
74181;BME280;62544;50.826;14.354;2022-07-30T13:44:39;99099.50;;;19.01;78.41
74181;BME280;62544;50.826;14.354;2022-07-30T13:48:41;99102.54;;;18.91;77.76
74181;BME280;62544;50.826;14.354;2022-07-30T13:52:43;99107.31;;;18.79;79.38
74181;BME280;62544;50.826;14.354;2022-07-30T13:56:45;99111.69;;;18.64;80.33
74181;BME280;62544;50.826;14.354;2022-07-30T14:00:47;99115.01;;;18.50;81.82
74181;BME280;62544;50.826;14.354;2022-07-30T14:04:49;99117.85;;;18.32;83.46
74181;BME280;62544;50.826;14.354;2022-07-30T14:08:51;99119.30;;;18.17;83.69
74181;BME280;62544;50.826;14.354;2022-07-30T14:12:54;99120.93;;;18.04;84.58
74181;BME280;62544;50.826;14.354;2022-07-30T14:16:55;99123.05;;;17.96;84.92
74181;BME280;62544;50.826;14.354;2022-07-30T14:20:57;99124.80;;;17.87;84.67
74181;BME280;62544;50.826;14.354;2022-07-30T14:24:59;99126.31;;;17.76;85.54
74181;BME280;62544;50.826;14.354;2022-07-30T14:29:01;99127.12;;;17.71;84.92
74181;BME280;62544;50.826;14.354;2022-07-30T14:33:03;99126.15;;;17.72;84.51
74181;BME280;62544;50.826;14.354;2022-07-30T14:37:05;99126.34;;;17.78;83.75
74181;BME280;62544;50.826;14.354;2022-07-30T14:41:07;99126.98;;;17.85;83.52
74181;BME280;62544;50.826;14.354;2022-07-30T14:45:09;99126.89;;;17.93;83.40
74181;BME280;62544;50.826;14.354;2022-07-30T14:49:11;99127.33;;;18.01;82.42
74181;BME280;62544;50.826;14.354;2022-07-30T14:53:13;99127.85;;;18.06;83.01
74181;BME280;62544;50.826;14.354;2022-07-30T14:57:15;99127.26;;;18.10;83.47
74181;BME280;62544;50.826;14.354;2022-07-30T15:01:17;99126.47;;;18.21;82.36
74181;BME280;62544;50.826;14.354;2022-07-30T15:05:20;99125.31;;;18.38;80.96
74181;BME280;62544;50.826;14.354;2022-07-30T15:09:22;99123.94;;;18.61;79.77
74181;BME280;62544;50.826;14.354;2022-07-30T15:13:24;99123.53;;;18.85;77.07
74181;BME280;62544;50.826;14.354;2022-07-30T15:17:26;99123.07;;;19.10;75.64
74181;BME280;62544;50.826;14.354;2022-07-30T15:21:27;99122.40;;;19.25;75.92
74181;BME280;62544;50.826;14.354;2022-07-30T15:25:30;99121.94;;;19.28;77.02
74181;BME280;62544;50.826;14.354;2022-07-30T15:29:32;99122.45;;;19.27;76.17
74181;BME280;62544;50.826;14.354;2022-07-30T15:33:34;99124.49;;;19.25;76.97
74181;BME280;62544;50.826;14.354;2022-07-30T15:37:36;99124.90;;;19.24;76.36
74181;BME280;62544;50.826;14.354;2022-07-30T15:41:38;99123.10;;;19.19;76.28
74181;BME280;62544;50.826;14.354;2022-07-30T15:45:40;99124.08;;;19.14;76.76
74181;BME280;62544;50.826;14.354;2022-07-30T15:49:42;99126.36;;;19.11;75.89
74181;BME280;62544;50.826;14.354;2022-07-30T15:53:43;99126.76;;;19.14;75.50
74181;BME280;62544;50.826;14.354;2022-07-30T15:57:45;99125.76;;;19.22;74.44
74181;BME280;62544;50.826;14.354;2022-07-30T16:01:48;99125.02;;;19.30;75.31
74181;BME280;62544;50.826;14.354;2022-07-30T16:05:49;99126.39;;;19.38;75.10
74181;BME280;62544;50.826;14.354;2022-07-30T16:09:52;99126.68;;;19.43;75.56
74181;BME280;62544;50.826;14.354;2022-07-30T16:13:54;99127.23;;;19.49;74.72
74181;BME280;62544;50.826;14.354;2022-07-30T16:17:56;99127.80;;;19.59;74.46
74181;BME280;62544;50.826;14.354;2022-07-30T16:21:58;99128.02;;;19.68;72.83
74181;BME280;62544;50.826;14.354;2022-07-30T16:25:59;99129.52;;;19.70;73.65
74181;BME280;62544;50.826;14.354;2022-07-30T16:30:02;99131.02;;;19.74;71.47
74181;BME280;62544;50.826;14.354;2022-07-30T16:34:06;99134.81;;;19.73;73.05
74181;BME280;62544;50.826;14.354;2022-07-30T16:38:06;99139.09;;;19.75;71.46
74181;BME280;62544;50.826;14.354;2022-07-30T16:42:08;99142.55;;;19.74;71.91
74181;BME280;62544;50.826;14.354;2022-07-30T16:46:09;99144.92;;;19.70;71.82
74181;BME280;62544;50.826;14.354;2022-07-30T16:50:12;99147.51;;;19.61;72.33
74181;BME280;62544;50.826;14.354;2022-07-30T16:54:13;99149.02;;;19.54;71.23
74181;BME280;62544;50.826;14.354;2022-07-30T16:58:15;99148.58;;;19.52;70.92
74181;BME280;62544;50.826;14.354;2022-07-30T17:02:17;99148.29;;;19.60;70.47
74181;BME280;62544;50.826;14.354;2022-07-30T17:06:19;99147.93;;;19.81;68.39
74181;BME280;62544;50.826;14.354;2022-07-30T17:10:21;99148.10;;;20.03;67.05
74181;BME280;62544;50.826;14.354;2022-07-30T17:14:23;99147.77;;;20.16;67.66
74181;BME280;62544;50.826;14.354;2022-07-30T17:18:25;99146.98;;;20.30;66.85
74181;BME280;62544;50.826;14.354;2022-07-30T17:22:27;99147.02;;;20.48;65.71
74181;BME280;62544;50.826;14.354;2022-07-30T17:26:29;99147.68;;;20.59;64.84
74181;BME280;62544;50.826;14.354;2022-07-30T17:30:31;99148.08;;;20.53;66.86
74181;BME280;62544;50.826;14.354;2022-07-30T17:34:33;99149.98;;;20.39;68.63
74181;BME280;62544;50.826;14.354;2022-07-30T17:38:35;99152.44;;;20.18;69.51
74181;BME280;62544;50.826;14.354;2022-07-30T17:42:38;99155.42;;;19.96;70.25
74181;BME280;62544;50.826;14.354;2022-07-30T17:46:39;99160.68;;;19.72;71.30
74181;BME280;62544;50.826;14.354;2022-07-30T17:50:41;99166.91;;;19.52;71.90
74181;BME280;62544;50.826;14.354;2022-07-30T17:54:43;99172.36;;;19.35;71.58
74181;BME280;62544;50.826;14.354;2022-07-30T17:58:45;99179.24;;;19.17;72.29
74181;BME280;62544;50.826;14.354;2022-07-30T18:02:47;99185.37;;;18.99;72.51
74181;BME280;62544;50.826;14.354;2022-07-30T18:06:49;99190.59;;;18.82;72.92
74181;BME280;62544;50.826;14.354;2022-07-30T18:10:51;99194.69;;;18.67;72.79
74181;BME280;62544;50.826;14.354;2022-07-30T18:14:53;99198.77;;;18.53;73.20
74181;BME280;62544;50.826;14.354;2022-07-30T18:18:55;99202.76;;;18.41;73.76
74181;BME280;62544;50.826;14.354;2022-07-30T18:22:58;99204.82;;;18.29;74.48
74181;BME280;62544;50.826;14.354;2022-07-30T18:26:59;99206.81;;;18.16;75.22
74181;BME280;62544;50.826;14.354;2022-07-30T18:31:01;99209.89;;;18.00;76.14
74181;BME280;62544;50.826;14.354;2022-07-30T18:35:03;99212.85;;;17.81;77.24
74181;BME280;62544;50.826;14.354;2022-07-30T18:39:05;99215.50;;;17.60;78.06
74181;BME280;62544;50.826;14.354;2022-07-30T18:43:07;99218.27;;;17.38;79.21
74181;BME280;62544;50.826;14.354;2022-07-30T18:47:09;99220.84;;;17.16;79.90
74181;BME280;62544;50.826;14.354;2022-07-30T18:51:11;99222.55;;;16.93;80.26
74181;BME280;62544;50.826;14.354;2022-07-30T18:55:13;99224.06;;;16.71;80.55
74181;BME280;62544;50.826;14.354;2022-07-30T18:59:15;99227.44;;;16.48;81.05
74181;BME280;62544;50.826;14.354;2022-07-30T19:03:17;99230.79;;;16.25;81.78
74181;BME280;62544;50.826;14.354;2022-07-30T19:07:19;99234.30;;;16.04;82.67
74181;BME280;62544;50.826;14.354;2022-07-30T19:11:21;99237.11;;;15.83;82.95
74181;BME280;62544;50.826;14.354;2022-07-30T19:15:26;99240.22;;;15.62;83.45
74181;BME280;62544;50.826;14.354;2022-07-30T19:19:25;99243.30;;;15.42;83.99
74181;BME280;62544;50.826;14.354;2022-07-30T19:23:27;99246.39;;;15.21;83.78
74181;BME280;62544;50.826;14.354;2022-07-30T19:27:29;99250.74;;;15.00;84.59
74181;BME280;62544;50.826;14.354;2022-07-30T19:31:31;99254.63;;;14.82;84.35
74181;BME280;62544;50.826;14.354;2022-07-30T19:35:34;99257.59;;;14.64;85.21
74181;BME280;62544;50.826;14.354;2022-07-30T19:39:35;99258.51;;;14.46;85.60
74181;BME280;62544;50.826;14.354;2022-07-30T19:43:37;99260.17;;;14.29;85.38
74181;BME280;62544;50.826;14.354;2022-07-30T19:47:40;99261.74;;;14.12;85.48
74181;BME280;62544;50.826;14.354;2022-07-30T19:51:41;99262.61;;;13.96;85.25
74181;BME280;62544;50.826;14.354;2022-07-30T19:55:43;99262.70;;;13.79;85.86
74181;BME280;62544;50.826;14.354;2022-07-30T19:59:45;99264.06;;;13.64;86.70
74181;BME280;62544;50.826;14.354;2022-07-30T20:03:47;99264.17;;;13.50;86.49
74181;BME280;62544;50.826;14.354;2022-07-30T20:07:49;99265.21;;;13.37;86.22
74181;BME280;62544;50.826;14.354;2022-07-30T20:11:51;99266.15;;;13.23;86.98
74181;BME280;62544;50.826;14.354;2022-07-30T20:15:53;99267.33;;;13.11;87.21
74181;BME280;62544;50.826;14.354;2022-07-30T20:19:55;99267.33;;;13.01;88.01
74181;BME280;62544;50.826;14.354;2022-07-30T20:23:57;99267.61;;;12.92;88.32
74181;BME280;62544;50.826;14.354;2022-07-30T20:28:01;99268.63;;;12.84;88.50
74181;BME280;62544;50.826;14.354;2022-07-30T20:32:01;99270.51;;;12.77;89.15
74181;BME280;62544;50.826;14.354;2022-07-30T20:36:03;99271.72;;;12.70;89.04
74181;BME280;62544;50.826;14.354;2022-07-30T20:40:06;99272.19;;;12.63;88.95
74181;BME280;62544;50.826;14.354;2022-07-30T20:44:07;99271.83;;;12.56;89.57
74181;BME280;62544;50.826;14.354;2022-07-30T20:48:09;99273.02;;;12.50;90.51
74181;BME280;62544;50.826;14.354;2022-07-30T20:52:11;99274.88;;;12.44;90.17
74181;BME280;62544;50.826;14.354;2022-07-30T20:56:13;99276.03;;;12.37;89.96
74181;BME280;62544;50.826;14.354;2022-07-30T21:00:15;99277.31;;;12.30;89.80
74181;BME280;62544;50.826;14.354;2022-07-30T21:04:17;99278.38;;;12.22;89.70
74181;BME280;62544;50.826;14.354;2022-07-30T21:08:19;99277.70;;;12.14;89.74
74181;BME280;62544;50.826;14.354;2022-07-30T21:12:21;99277.84;;;12.07;89.77
74181;BME280;62544;50.826;14.354;2022-07-30T21:16:23;99278.20;;;11.99;89.71
74181;BME280;62544;50.826;14.354;2022-07-30T21:20:25;99279.08;;;11.92;89.81
74181;BME280;62544;50.826;14.354;2022-07-30T21:24:27;99279.57;;;11.86;90.29
74181;BME280;62544;50.826;14.354;2022-07-30T21:28:29;99280.56;;;11.79;90.25
74181;BME280;62544;50.826;14.354;2022-07-30T21:32:31;99280.77;;;11.72;90.17